Etusivu
METAR-TAF:

METAR-TAF

Lentoasemat :

Clarion Municipal Airport

Clarion, Iowa, Yhdysvallat

Leveyspiiri: 42-45N, Pituuspiiri: 093-46W, korkeus merenpinnasta: 354 m

Tämänhetkinen sää

Tämä raportti tehtiin 16 minuuttia sitten, kello 10.15 UTC
Tuuli 5 kn etelästä
Lämpötila 0°C
Kosteus 100%
Ilmanpaine 1017 hPa
Näkyvyys: 16.1 km
selkeää

METAR: KCAV 171015Z AUTO 17005KT 10SM CLR 00/M00 A3002 RMK A01

Aika: 05:31 (10:31 UTC)


TAF: puuttuu

Säähavainnot ja -ennusteet yli 4000 lentoasemalta (METAR- ja TAF-raportit).

Käytössä olevat sääasemat on merkitty karttaan keltaisilla ja punaisilla pisteillä.

Aseta hiiri pisteen päälle nähdäksesi sääaseman nimen.

Klikkaa sitten nähdäksesi säähavainnot ja -ennusteet.

Kartan vaihtaminen: klikkaa mustalla rastilla varustettuja vihreitä pisteitä, niin voit zoomata sisään; viivalla varustettua vihreää pistettä, niin voit zoomata ulos tai vihreitä nuolia, niin pääset viereisille kartoille.


METAR-TAF: